Time;durP1;ratioP1;P1;durP2;ratioP2;P2;SDS_P1;SDS_P2;PMS_P1;PMS_P2;Temp;Humidity;BMP_temperature;BMP_pressure;BME280_temperature;BME280_humidity;BME280_pressure;Samples;Min_cycle;Max_cycle;Signal;HPM_P1;HPM_P2
2023/10/05 00:03:46;;;;;;;35.78;15.07;;;5.40;99.90;;;;;;4995078;28;20045;-85
2023/10/05 00:06:14;;;;;;;38.83;15.90;;;5.50;99.90;;;;;;4995356;28;20056;-85
2023/10/05 00:08:49;;;;;;;33.45;15.05;;;5.40;99.90;;;;;;5011197;28;20284;-85
2023/10/05 00:11:23;;;;;;;36.88;14.85;;;5.50;99.90;;;;;;5010893;28;20053;-85
2023/10/05 00:13:53;;;;;;;41.10;16.73;;;5.40;99.90;;;;;;4994597;28;20030;-85
2023/10/05 00:16:23;;;;;;;32.17;14.87;;;5.50;99.90;;;;;;4994825;28;20034;-85
2023/10/05 00:18:50;;;;;;;28.85;14.68;;;5.50;99.90;;;;;;4994861;28;20280;-85
2023/10/05 00:21:20;;;;;;;34.88;14.80;;;5.50;99.90;;;;;;4994984;28;20033;-85
2023/10/05 00:23:52;;;;;;;33.30;14.73;;;5.50;99.90;;;;;;4995445;28;20041;-85
2023/10/05 00:26:23;;;;;;;32.22;14.60;;;5.50;99.90;;;;;;4994791;28;20516;-85
2023/10/05 00:31:49;;;;;;;30.15;14.95;;;5.60;99.90;;;;;;4976691;28;20421;-85
2023/10/05 00:34:22;;;;;;;36.70;15.13;;;5.60;99.90;;;;;;4994913;28;20392;-85
2023/10/05 00:36:53;;;;;;;40.20;14.18;;;5.70;99.90;;;;;;5011239;28;20026;-85
2023/10/05 00:39:20;;;;;;;33.20;15.07;;;5.70;99.90;;;;;;5010953;28;20085;-85
2023/10/05 00:41:58;;;;;;;36.20;14.85;;;5.70;99.90;;;;;;5012421;28;20482;-85
2023/10/05 00:44:23;;;;;;;41.47;16.10;;;5.70;99.90;;;;;;4998176;28;20129;-85
2023/10/05 00:46:49;;;;;;;28.85;14.50;;;5.70;99.90;;;;;;5014649;28;20053;-84
2023/10/05 00:49:29;;;;;;;42.30;15.55;;;5.70;99.90;;;;;;4998469;28;20025;-85
2023/10/05 00:54:36;;;;;;;31.13;14.27;;;5.60;99.90;;;;;;4997741;28;20057;-85
2023/10/05 00:57:05;;;;;;;38.67;15.20;;;5.60;99.90;;;;;;5015320;28;20092;-85
2023/10/05 00:59:32;;;;;;;34.70;14.95;;;5.60;99.90;;;;;;4998247;28;20040;-85
2023/10/05 01:02:05;;;;;;;26.75;13.82;;;5.70;99.90;;;;;;4997511;28;20088;-84
2023/10/05 01:04:37;;;;;;;41.00;15.75;;;5.70;99.90;;;;;;4998439;28;20044;-85
2023/10/05 01:07:17;;;;;;;34.10;15.52;;;5.60;99.90;;;;;;4998061;28;20038;-84
2023/10/05 01:12:26;;;;;;;28.45;14.20;;;5.70;99.90;;;;;;4997866;28;20065;-85
2023/10/05 01:14:52;;;;;;;32.25;14.70;;;5.70;99.90;;;;;;4997962;28;20052;-84
2023/10/05 01:17:25;;;;;;;34.50;15.00;;;5.70;99.90;;;;;;5024308;28;20030;-85
2023/10/05 01:19:58;;;;;;;31.98;14.05;;;5.70;99.90;;;;;;4998225;28;20042;-85
2023/10/05 01:22:40;;;;;;;44.95;16.15;;;5.80;99.90;;;;;;4997690;28;20374;-84
2023/10/05 01:25:07;;;;;;;;;;;5.80;99.90;;;;;;4997939;28;20891;-85
2023/10/05 01:27:33;;;;;;;38.45;16.42;;;5.80;99.90;;;;;;4997650;28;20056;-85
2023/10/05 01:30:00;;;;;;;37.65;17.98;;;5.80;99.90;;;;;;5013017;28;20037;-84
2023/10/05 01:32:26;;;;;;;39.65;16.98;;;5.90;99.90;;;;;;4996765;28;20037;-85
2023/10/05 01:34:53;;;;;;;43.15;18.13;;;5.90;99.90;;;;;;4997433;28;20025;-85
2023/10/05 01:37:23;;;;;;;38.55;18.05;;;6.00;99.90;;;;;;4997111;28;20100;-85
2023/10/05 01:39:52;;;;;;;36.63;17.20;;;6.00;99.90;;;;;;4996772;28;20145;-85
2023/10/05 01:42:19;;;;;;;45.92;20.25;;;6.00;99.90;;;;;;4996425;28;20441;-85
2023/10/05 01:44:48;;;;;;;44.88;19.65;;;6.00;99.90;;;;;;4996912;28;20181;-85
2023/10/05 01:47:17;;;;;;;51.88;20.55;;;6.00;99.90;;;;;;4996996;28;20030;-85
2023/10/05 01:49:44;;;;;;;51.75;21.05;;;6.00;99.90;;;;;;4996948;28;20030;-85
2023/10/05 01:52:10;;;;;;;48.47;19.77;;;6.10;99.90;;;;;;4996720;28;20123;-85
2023/10/05 01:54:36;;;;;;;49.97;20.67;;;6.10;99.90;;;;;;5012864;28;20061;-85
2023/10/05 01:57:06;;;;;;;45.72;20.02;;;6.10;99.90;;;;;;4996873;28;20025;-85
2023/10/05 01:59:34;;;;;;;47.25;20.13;;;6.10;99.90;;;;;;4997312;28;20050;-85
2023/10/05 02:02:10;;;;;;;42.20;19.52;;;6.00;99.90;;;;;;4996761;28;20391;-85
2023/10/05 02:04:39;;;;;;;43.88;18.92;;;6.00;99.90;;;;;;4996770;28;20033;-85
2023/10/05 02:07:05;;;;;;;43.08;19.00;;;6.00;99.90;;;;;;5013178;28;20058;-85
2023/10/05 02:09:31;;;;;;;42.63;19.40;;;6.00;99.90;;;;;;4996338;28;20047;-85
2023/10/05 02:12:02;;;;;;;43.20;18.80;;;6.00;99.90;;;;;;4996683;28;20485;-85
2023/10/05 02:14:30;;;;;;;38.63;18.85;;;6.10;99.90;;;;;;4996684;28;20034;-85
2023/10/05 02:16:57;;;;;;;44.28;19.30;;;6.10;99.90;;;;;;4996597;28;20038;-85
2023/10/05 02:19:23;;;;;;;43.60;19.73;;;6.20;99.90;;;;;;4996657;28;20088;-85
2023/10/05 02:21:53;;;;;;;44.55;18.70;;;6.20;99.90;;;;;;4996161;28;20113;-85
2023/10/05 02:24:22;;;;;;;40.85;19.02;;;6.30;99.90;;;;;;4995995;28;20049;-85
2023/10/05 02:29:28;;;;;;;41.88;19.02;;;6.40;99.90;;;;;;4995723;28;20037;-85
2023/10/05 02:34:44;;;;;;;40.25;20.10;;;6.50;99.90;;;;;;4995841;28;20037;-85
2023/10/05 02:37:11;;;;;;;40.72;17.95;;;6.50;99.90;;;;;;5012410;28;20026;-85
2023/10/05 02:39:38;;;;;;;45.20;20.70;;;6.60;99.90;;;;;;4995666;28;20445;-85
2023/10/05 02:42:14;;;;;;;41.53;19.95;;;6.60;99.90;;;;;;4995885;28;20121;-85
2023/10/05 02:44:40;;;;;;;44.55;17.58;;;6.70;99.90;;;;;;4996409;28;20735;-85
2023/10/05 02:47:10;;;;;;;38.72;17.92;;;6.70;99.90;;;;;;4996112;28;20025;-85
2023/10/05 02:49:44;;;;;;;34.55;17.42;;;6.70;99.90;;;;;;4995822;28;20034;-85
2023/10/05 02:52:52;;;;;;;42.13;16.85;;;6.80;99.90;;;;;;4995869;28;20048;-85
2023/10/05 02:55:17;;;;;;;45.70;16.33;;;6.90;99.90;;;;;;4979765;28;20030;-85
2023/10/05 02:57:43;;;;;;;41.38;17.25;;;6.90;99.90;;;;;;5012234;28;20042;-85
2023/10/05 03:00:11;;;;;;;43.38;17.50;;;6.90;99.90;;;;;;4995396;28;20069;-85
2023/10/05 03:02:45;;;;;;;39.85;15.93;;;6.90;99.90;;;;;;4995527;28;20057;-85
2023/10/05 03:05:11;;;;;;;40.97;15.98;;;7.00;99.90;;;;;;4995314;28;20513;-85
2023/10/05 03:07:41;;;;;;;30.73;15.25;;;7.00;99.90;;;;;;5011821;28;20040;-85
2023/10/05 03:10:13;;;;;;;32.38;14.68;;;7.10;99.90;;;;;;4995774;28;20530;-85
2023/10/05 03:12:39;;;;;;;42.10;15.27;;;7.10;99.90;;;;;;4995683;28;20025;-85
2023/10/05 03:15:08;;;;;;;34.17;14.63;;;7.20;99.90;;;;;;4995539;28;20041;-85
2023/10/05 03:17:37;;;;;;;44.25;16.38;;;7.20;99.90;;;;;;4979399;28;20030;-83
2023/10/05 03:20:15;;;;;;;32.45;15.15;;;7.20;99.90;;;;;;4994949;28;20033;-85
2023/10/05 03:22:40;;;;;;;35.58;15.40;;;7.20;99.90;;;;;;4994998;28;20028;-85
2023/10/05 03:25:06;;;;;;;40.67;15.77;;;7.30;99.90;;;;;;4995022;28;20030;-85
2023/10/05 03:27:33;;;;;;;43.72;14.38;;;7.30;99.90;;;;;;4995161;28;20029;-85
2023/10/05 03:30:01;;;;;;;44.78;15.30;;;7.30;99.90;;;;;;4995150;28;20121;-86
2023/10/05 03:32:28;;;;;;;33.35;14.05;;;7.30;99.90;;;;;;4995057;28;20037;-85
2023/10/05 03:34:57;;;;;;;34.78;13.95;;;7.30;99.90;;;;;;4995240;28;20018;-85
2023/10/05 03:37:24;;;;;;;37.25;14.15;;;7.30;99.90;;;;;;4995333;28;20034;-85
2023/10/05 03:42:21;;;;;;;35.15;14.95;;;7.40;99.90;;;;;;4995340;28;20030;-85
2023/10/05 03:45:00;;;;;;;41.53;15.82;;;7.40;99.90;;;;;;4995608;28;20433;-85
2023/10/05 03:47:27;;;;;;;33.58;13.82;;;7.40;99.90;;;;;;4996041;28;20672;-85
2023/10/05 03:49:56;;;;;;;36.33;12.20;;;7.40;99.90;;;;;;4979558;28;20062;-85
2023/10/05 03:52:29;;;;;;;39.83;13.07;;;7.20;99.90;;;;;;4995109;28;20022;-85
2023/10/05 03:55:01;;;;;;;37.13;14.35;;;7.20;99.90;;;;;;4995441;28;20045;-85
2023/10/05 03:57:31;;;;;;;32.47;11.98;;;7.10;99.90;;;;;;4995579;28;20065;-85
2023/10/05 04:00:34;;;;;;;24.48;12.23;;;7.10;99.90;;;;;;4994958;28;20051;-86
2023/10/05 04:03:00;;;;;;;35.53;11.95;;;7.10;99.90;;;;;;4994764;28;20092;-85
2023/10/05 04:05:25;;;;;;;49.40;13.85;;;7.10;99.90;;;;;;5011390;28;20038;-86
2023/10/05 04:07:52;;;;;;;37.67;13.48;;;7.10;99.90;;;;;;4995325;28;20846;-85
2023/10/05 04:10:27;;;;;;;34.83;13.57;;;7.10;99.90;;;;;;4978691;28;20042;-85
2023/10/05 04:12:54;;;;;;;29.27;12.25;;;7.10;99.90;;;;;;4994797;28;20069;-85
2023/10/05 04:15:20;;;;;;;32.30;13.05;;;7.10;99.90;;;;;;4995039;28;20084;-85
2023/10/05 04:17:49;;;;;;;32.22;13.27;;;7.20;99.90;;;;;;4998521;28;20030;-85
2023/10/05 04:20:28;;;;;;;32.92;12.70;;;7.20;99.90;;;;;;4998960;28;20133;-86
2023/10/05 04:22:55;;;;;;;37.13;12.02;;;7.20;99.90;;;;;;4998949;28;20040;-85
2023/10/05 04:25:20;;;;;;;33.70;12.05;;;7.20;99.90;;;;;;5023830;28;20032;-85
2023/10/05 04:27:46;;;;;;;39.05;14.48;;;7.20;99.90;;;;;;5019460;28;20117;-85
2023/10/05 04:30:17;;;;;;;45.92;20.50;;;7.20;99.90;;;;;;4998439;28;20034;-86
2023/10/05 04:32:43;;;;;;;65.70;28.02;;;7.20;99.90;;;;;;4998573;28;20030;-85
2023/10/05 04:35:22;;;;;;;47.35;18.55;;;7.20;99.90;;;;;;5014891;28;20056;-85
2023/10/05 04:37:49;;;;;;;39.53;15.30;;;7.20;99.90;;;;;;4998583;28;20446;-85
2023/10/05 04:40:17;;;;;;;41.13;13.45;;;7.20;99.90;;;;;;4998071;28;20101;-85
2023/10/05 04:42:43;;;;;;;29.85;12.93;;;7.20;99.90;;;;;;5014578;28;20401;-85
2023/10/05 04:45:14;;;;;;;39.22;13.68;;;7.20;99.90;;;;;;4998270;28;20038;-85
2023/10/05 04:47:40;;;;;;;41.47;13.48;;;7.20;99.90;;;;;;4998267;28;20044;-86
2023/10/05 04:50:06;;;;;;;34.70;13.75;;;7.30;99.90;;;;;;4998650;28;20069;-85
2023/10/05 04:52:35;;;;;;;39.40;14.10;;;7.30;99.90;;;;;;4998488;28;20030;-85
2023/10/05 04:55:14;;;;;;;37.72;14.35;;;7.30;99.90;;;;;;4966691;28;20030;-85
2023/10/05 04:57:49;;;;;;;29.05;11.75;;;7.30;99.90;;;;;;4997986;28;20040;-85
2023/10/05 05:03:32;;;;;;;38.88;12.07;;;7.30;99.90;;;;;;4973866;28;20479;-85
2023/10/05 05:06:10;;;;;;;33.42;13.05;;;7.30;99.90;;;;;;4977327;28;20385;-85
2023/10/05 05:08:40;;;;;;;36.58;12.93;;;7.30;99.90;;;;;;4997849;28;20030;-85
2023/10/05 05:11:11;;;;;;;38.70;13.80;;;7.30;99.90;;;;;;4997465;28;20434;-85
2023/10/05 05:13:38;;;;;;;34.47;13.45;;;7.30;99.90;;;;;;4997394;28;20034;-85
2023/10/05 05:16:08;;;;;;;29.70;13.32;;;7.30;99.90;;;;;;4997475;28;20497;-85
2023/10/05 05:18:37;;;;;;;37.05;14.65;;;7.30;99.90;;;;;;5013494;28;20029;-85
2023/10/05 05:21:07;;;;;;;50.72;18.60;;;7.30;99.90;;;;;;4997983;28;20109;-85
2023/10/05 05:23:34;;;;;;;38.50;14.75;;;7.30;99.90;;;;;;4997508;28;20034;-85
2023/10/05 05:26:00;;;;;;;40.03;15.63;;;7.30;99.90;;;;;;5015234;28;20121;-85
2023/10/05 05:28:26;;;;;;;46.05;16.65;;;7.40;99.90;;;;;;4996813;28;20057;-85
2023/10/05 05:30:53;;;;;;;32.42;14.48;;;7.40;99.90;;;;;;5013885;28;20049;-85
2023/10/05 05:33:19;;;;;;;41.38;15.20;;;7.30;99.90;;;;;;4996943;28;20396;-85
2023/10/05 05:35:45;;;;;;;33.65;14.60;;;7.40;99.90;;;;;;4997048;28;20030;-85
2023/10/05 05:38:10;;;;;;;42.03;16.95;;;7.30;99.90;;;;;;5013546;28;20025;-85
2023/10/05 05:40:37;;;;;;;36.60;14.75;;;7.40;99.90;;;;;;4997031;28;20030;-85
2023/10/05 05:43:11;;;;;;;36.90;14.57;;;7.40;99.90;;;;;;4997268;28;20095;-85
2023/10/05 05:45:43;;;;;;;36.40;14.13;;;7.40;99.90;;;;;;4996913;28;20042;-85
2023/10/05 05:48:13;;;;;;;44.85;17.63;;;7.40;99.90;;;;;;4996872;28;20073;-85
2023/10/05 05:50:42;;;;;;;61.00;26.17;;;7.50;99.90;;;;;;4997116;28;20058;-85
2023/10/05 05:53:11;;;;;;;65.65;26.52;;;7.50;99.90;;;;;;4996701;28;20504;-85
2023/10/05 05:55:41;;;;;;;62.42;25.50;;;7.50;99.90;;;;;;4996164;28;20041;-86
2023/10/05 05:58:07;;;;;;;62.55;20.20;;;7.50;99.90;;;;;;4996609;28;20116;-85
2023/10/05 06:00:33;;;;;;;46.20;19.45;;;7.60;99.90;;;;;;4996954;28;20030;-85
2023/10/05 06:03:00;;;;;;;41.08;17.55;;;7.70;99.90;;;;;;4996701;28;20100;-86
2023/10/05 06:05:25;;;;;;;40.65;16.38;;;7.70;99.90;;;;;;4996453;28;20034;-85
2023/10/05 06:07:51;;;;;;;35.25;15.40;;;7.70;99.90;;;;;;4996994;28;20088;-86
2023/10/05 06:10:17;;;;;;;37.17;16.38;;;7.80;99.90;;;;;;4996692;28;20465;-86
2023/10/05 06:12:48;;;;;;;42.13;15.82;;;7.80;99.90;;;;;;4996687;28;20033;-85
2023/10/05 06:19:01;;;;;;;43.97;15.07;;;8.00;99.90;;;;;;5014315;28;20045;-85
2023/10/05 06:21:27;;;;;;;36.55;13.68;;;8.10;99.90;;;;;;4996459;28;20045;-85
2023/10/05 06:23:54;;;;;;;36.83;13.85;;;8.10;99.90;;;;;;5012813;28;20417;-85
2023/10/05 06:26:21;;;;;;;40.35;14.45;;;8.20;99.90;;;;;;4996244;28;20669;-85
2023/10/05 06:28:47;;;;;;;43.50;15.88;;;8.20;99.90;;;;;;4996101;28;20026;-85
2023/10/05 06:31:13;;;;;;;36.38;16.35;;;8.30;99.90;;;;;;4996180;28;20584;-85
2023/10/05 06:33:42;;;;;;;51.38;16.65;;;8.40;99.90;;;;;;4995889;28;20116;-85
2023/10/05 06:36:08;;;;;;;36.78;16.35;;;8.50;99.90;;;;;;4995727;28;20037;-85
2023/10/05 06:38:35;;;;;;;47.97;15.07;;;8.70;99.90;;;;;;4995593;28;20512;-85
2023/10/05 06:41:03;;;;;;;42.20;13.80;;;8.80;99.90;;;;;;4995801;28;20480;-85
2023/10/05 06:43:35;;;;;;;38.53;13.15;;;8.90;99.90;;;;;;5011955;28;20180;-85
2023/10/05 06:46:09;;;;;;;;;;;9.00;99.90;;;;;;4995780;28;20136;-85
2023/10/05 06:48:40;;;;;;;35.60;12.70;;;9.10;99.90;;;;;;4995002;28;19911;-85
2023/10/05 06:51:07;;;;;;;30.97;11.83;;;9.10;99.90;;;;;;5013503;28;20042;-85
2023/10/05 06:53:32;;;;;;;36.90;11.77;;;9.30;99.90;;;;;;4995482;28;20327;-85
2023/10/05 06:55:58;;;;;;;50.08;13.43;;;9.40;99.90;;;;;;4995876;28;20143;-85
2023/10/05 06:58:24;;;;;;;37.72;11.02;;;9.50;99.90;;;;;;4995964;28;20041;-85
2023/10/05 07:00:50;;;;;;;32.15;11.15;;;9.60;99.90;;;;;;4995186;28;20656;-85
2023/10/05 07:03:16;;;;;;;33.45;10.77;;;9.90;99.90;;;;;;4995231;28;20477;-86
2023/10/05 07:05:57;;;;;;;40.10;11.98;;;10.00;99.90;;;;;;4995376;28;20030;-85
2023/10/05 07:08:23;;;;;;;25.90;10.23;;;9.90;99.90;;;;;;5011701;28;20165;-85
2023/10/05 07:10:49;;;;;;;32.17;10.85;;;9.90;99.90;;;;;;4994926;28;20474;-85
2023/10/05 07:13:19;;;;;;;26.20;10.27;;;9.90;99.90;;;;;;4994839;28;20390;-86
2023/10/05 07:15:45;;;;;;;25.90;10.50;;;10.00;99.90;;;;;;4995144;28;20665;-86
2023/10/05 07:18:12;;;;;;;28.00;10.95;;;10.10;99.90;;;;;;4995181;28;20030;-86
2023/10/05 07:20:41;;;;;;;29.63;9.48;;;10.10;99.90;;;;;;4994795;28;20085;-85
2023/10/05 07:23:07;;;;;;;37.90;12.30;;;10.20;99.90;;;;;;4994846;28;20038;-85
2023/10/05 07:25:33;;;;;;;36.20;14.82;;;10.40;99.90;;;;;;4995347;28;20044;-86
2023/10/05 07:27:59;;;;;;;36.22;14.98;;;10.70;99.90;;;;;;4995939;28;20073;-85
2023/10/05 07:30:25;;;;;;;37.70;16.02;;;10.80;99.90;;;;;;4995715;28;20061;-86
2023/10/05 07:32:51;;;;;;;36.47;13.68;;;10.80;99.90;;;;;;5011748;28;20033;-85
2023/10/05 07:35:16;;;;;;;31.40;11.60;;;10.80;99.90;;;;;;4995508;28;20099;-84
2023/10/05 07:37:42;;;;;;;27.95;10.02;;;11.00;99.90;;;;;;4995758;28;20034;-85
2023/10/05 07:40:08;;;;;;;28.95;9.85;;;11.10;99.90;;;;;;5011301;28;20030;-85
2023/10/05 07:42:34;;;;;;;23.70;9.15;;;11.30;99.90;;;;;;4994857;28;20492;-85
2023/10/05 07:45:00;;;;;;;26.75;8.68;;;11.30;99.90;;;;;;4995725;28;20030;-85
2023/10/05 07:47:26;;;;;;;19.98;7.90;;;11.10;99.90;;;;;;5012481;28;20477;-85
2023/10/05 07:49:53;;;;;;;20.17;7.40;;;11.00;99.90;;;;;;4995750;28;20038;-85
2023/10/05 07:52:19;;;;;;;18.35;7.05;;;11.00;99.90;;;;;;4998007;28;20625;-85
2023/10/05 07:54:46;;;;;;;19.05;6.88;;;11.30;99.90;;;;;;4999544;28;20037;-85
2023/10/05 07:57:13;;;;;;;22.63;6.75;;;11.40;99.90;;;;;;4999492;28;20038;-85
2023/10/05 07:59:43;;;;;;;24.08;7.40;;;11.70;99.90;;;;;;4999385;28;20061;-85
2023/10/05 08:02:13;;;;;;;24.45;6.18;;;11.70;99.90;;;;;;4999336;28;20026;-85
2023/10/05 08:04:40;;;;;;;22.30;7.17;;;11.90;99.90;;;;;;4999304;28;20041;-85
2023/10/05 08:07:07;;;;;;;20.08;6.22;;;12.10;99.90;;;;;;4999288;28;20045;-85
2023/10/05 08:09:34;;;;;;;19.10;6.00;;;12.00;99.90;;;;;;4999320;28;20042;-85
2023/10/05 08:12:00;;;;;;;23.42;5.85;;;12.00;99.90;;;;;;4998887;28;20038;-85
2023/10/05 08:14:30;;;;;;;31.77;7.22;;;12.10;99.90;;;;;;4999285;28;20629;-86
2023/10/05 08:16:56;;;;;;;24.38;7.10;;;12.20;99.90;;;;;;4999433;28;20810;-85
2023/10/05 08:19:25;;;;;;;31.92;6.78;;;12.40;99.90;;;;;;4998806;28;20030;-85
2023/10/05 08:21:52;;;;;;;20.75;6.45;;;12.50;99.90;;;;;;4998274;28;20526;-85
2023/10/05 08:24:18;;;;;;;19.50;6.20;;;12.40;99.90;;;;;;4998844;28;20030;-85
2023/10/05 08:26:45;;;;;;;18.17;6.35;;;12.50;99.90;;;;;;4999154;28;20038;-85
2023/10/05 08:29:11;;;;;;;18.25;5.63;;;12.60;99.90;;;;;;4998932;28;20208;-86
2023/10/05 08:31:37;;;;;;;18.67;6.53;;;12.60;99.90;;;;;;5014691;28;20563;-85
2023/10/05 08:34:03;;;;;;;17.88;6.68;;;13.00;99.90;;;;;;4998521;28;20129;-85
2023/10/05 08:36:31;;;;;;;20.92;6.28;;;13.10;99.90;;;;;;5015016;28;20049;-85
2023/10/05 08:38:57;;;;;;;17.52;5.72;;;13.20;99.90;;;;;;4983915;28;20125;-85
2023/10/05 08:41:44;;;;;;;17.58;5.65;;;13.10;99.90;;;;;;4997916;28;20113;-85
2023/10/05 08:44:26;;;;;;;23.60;7.32;;;13.20;99.90;;;;;;4998021;28;20041;-85
2023/10/05 08:46:55;;;;;;;17.83;6.20;;;13.20;99.90;;;;;;4997947;28;20148;-85
2023/10/05 08:49:24;;;;;;;16.35;7.60;;;13.20;99.90;;;;;;4998251;28;20036;-85
2023/10/05 08:51:51;;;;;;;20.08;6.05;;;13.40;99.90;;;;;;4997276;28;20093;-85
2023/10/05 08:54:21;;;;;;;24.05;6.18;;;13.40;99.90;;;;;;4996996;28;20105;-85
2023/10/05 08:56:48;;;;;;;29.38;8.48;;;13.20;99.90;;;;;;4996873;28;20643;-85
2023/10/05 08:59:14;;;;;;;23.15;6.85;;;13.20;99.90;;;;;;5013378;28;20045;-85
2023/10/05 09:01:46;;;;;;;18.90;9.63;;;13.20;99.90;;;;;;4996632;28;20127;-85
2023/10/05 09:07:08;;;;;;;18.38;6.78;;;13.30;99.90;;;;;;4997117;28;20041;-86
2023/10/05 09:09:39;;;;;;;26.20;8.40;;;13.50;99.90;;;;;;4980804;28;20469;-85
2023/10/05 09:12:35;;;;;;;17.98;6.35;;;13.50;99.90;;;;;;4997464;28;20038;-85
2023/10/05 09:15:19;;;;;;;17.60;5.80;;;14.20;99.90;;;;;;4972578;28;20505;-86
2023/10/05 09:17:57;;;;;;;21.33;5.40;;;14.50;99.90;;;;;;4997323;28;20033;-85
2023/10/05 09:20:36;;;;;;;17.17;5.60;;;15.00;99.90;;;;;;4997124;28;20033;-84
2023/10/05 09:23:05;;;;;;;17.08;5.70;;;15.70;99.90;;;;;;4997285;28;20054;-85
2023/10/05 09:25:38;;;;;;;12.10;5.35;;;15.90;99.90;;;;;;5013357;28;20030;-85
2023/10/05 09:29:12;;;;;;;16.30;6.32;;;16.20;99.90;;;;;;4996868;28;20034;-86
2023/10/05 09:31:41;;;;;;;18.65;6.22;;;16.70;99.90;;;;;;4980912;28;20030;-85
2023/10/05 09:34:14;;;;;;;18.20;5.40;;;17.00;99.90;;;;;;4997156;28;20066;-85
2023/10/05 09:36:39;;;;;;;20.85;6.47;;;17.00;99.90;;;;;;4997091;28;20034;-86
2023/10/05 09:39:10;;;;;;;16.65;5.18;;;16.80;99.90;;;;;;4996897;28;20508;-86
2023/10/05 09:41:37;;;;;;;23.17;6.32;;;16.70;99.90;;;;;;4996235;28;20512;-85
2023/10/05 09:44:07;;;;;;;13.73;4.90;;;16.60;99.90;;;;;;4996157;28;20030;-86
2023/10/05 09:46:34;;;;;;;16.25;5.35;;;16.70;99.90;;;;;;4996598;28;20083;-86
2023/10/05 09:49:02;;;;;;;16.27;5.10;;;16.10;99.90;;;;;;4996507;28;20132;-85
2023/10/05 09:51:29;;;;;;;16.48;5.85;;;16.00;99.90;;;;;;4996558;28;20037;-85
2023/10/05 09:53:59;;;;;;;16.50;5.80;;;15.90;99.90;;;;;;4996486;28;20540;-86
2023/10/05 09:56:25;;;;;;;20.35;6.95;;;16.00;99.90;;;;;;4996837;28;20490;-86
2023/10/05 09:58:53;;;;;;;14.77;5.18;;;16.00;99.90;;;;;;4996952;28;20145;-85
2023/10/05 10:01:21;;;;;;;18.70;6.70;;;16.10;99.90;;;;;;4996490;28;20377;-85
2023/10/05 10:03:53;;;;;;;18.50;6.57;;;15.80;99.90;;;;;;4996586;28;20038;-85
2023/10/05 10:06:24;;;;;;;14.35;6.18;;;15.70;99.90;;;;;;4996291;28;20065;-86
2023/10/05 10:08:54;;;;;;;16.25;5.78;;;15.40;99.90;;;;;;5012670;28;20413;-85
2023/10/05 10:11:24;;;;;;;16.67;6.20;;;15.20;99.90;;;;;;4996088;28;20645;-85
2023/10/05 10:14:00;;;;;;;24.65;6.13;;;15.10;99.90;;;;;;4995605;28;20030;-85
2023/10/05 10:16:27;;;;;;;16.40;5.20;;;14.90;99.90;;;;;;4996199;28;20060;-86
2023/10/05 10:19:18;;;;;;;19.15;7.28;;;15.10;99.90;;;;;;4995583;28;20034;-85
2023/10/05 10:21:47;;;;;;;16.90;5.50;;;15.30;99.90;;;;;;4995312;28;20053;-86
2023/10/05 10:24:17;;;;;;;15.45;5.57;;;15.50;99.90;;;;;;4995705;28;20037;-85
2023/10/05 10:26:59;;;;;;;19.23;6.10;;;15.70;99.90;;;;;;4995882;28;20034;-85
2023/10/05 10:29:39;;;;;;;;;;;15.60;99.90;;;;;;4996155;28;20116;-85
2023/10/05 10:32:18;;;;;;;16.63;5.97;;;15.60;99.90;;;;;;5011655;28;19913;-85
2023/10/05 10:34:52;;;;;;;16.30;5.57;;;15.40;99.90;;;;;;4995614;28;20033;-85
2023/10/05 10:37:39;;;;;;;19.20;6.03;;;15.30;99.90;;;;;;4995524;28;20084;-85
2023/10/05 10:42:54;;;;;;;23.02;5.88;;;15.20;99.90;;;;;;4995515;28;20045;-87
2023/10/05 10:45:24;;;;;;;17.38;5.88;;;15.30;99.90;;;;;;4979538;28;20034;-86
2023/10/05 10:47:52;;;;;;;15.90;5.25;;;15.20;99.90;;;;;;5013494;28;20057;-85
2023/10/05 10:50:29;;;;;;;14.55;5.28;;;15.20;99.90;;;;;;5013281;28;20040;-84
2023/10/05 10:52:56;;;;;;;16.65;5.60;;;15.30;99.90;;;;;;4995385;28;20049;-81
2023/10/05 10:55:31;;;;;;;18.90;5.43;;;15.20;99.90;;;;;;4994779;28;20033;-85
2023/10/05 10:57:59;;;;;;;15.98;5.18;;;15.00;99.90;;;;;;4995331;28;20092;-85
2023/10/05 11:00:54;;;;;;;18.90;5.80;;;14.90;99.90;;;;;;4995555;28;20037;-85
2023/10/05 11:03:24;;;;;;;19.40;5.70;;;15.10;99.90;;;;;;4995504;28;20041;-85
2023/10/05 11:05:54;;;;;;;16.02;4.97;;;15.40;99.90;;;;;;4995127;28;20030;-85
2023/10/05 11:08:20;;;;;;;16.15;4.95;;;15.30;99.90;;;;;;4995007;28;20034;-84
2023/10/05 11:11:19;;;;;;;14.75;4.90;;;15.10;99.90;;;;;;4994985;28;20473;-84
2023/10/05 11:13:56;;;;;;;12.95;5.22;;;14.90;99.90;;;;;;4995172;28;20108;-85
2023/10/05 11:16:45;;;;;;;16.63;4.90;;;14.90;99.90;;;;;;4994739;28;20034;-84
2023/10/05 11:19:24;;;;;;;14.18;4.50;;;14.90;99.90;;;;;;4995201;28;20038;-85
2023/10/05 11:21:50;;;;;;;11.25;4.38;;;14.80;99.90;;;;;;4995310;28;20033;-85
2023/10/05 11:24:18;;;;;;;21.60;6.25;;;14.90;99.90;;;;;;4995361;28;20026;-84
2023/10/05 11:29:43;;;;;;;11.38;4.20;;;14.90;99.90;;;;;;5002900;28;20042;-85
2023/10/05 11:32:15;;;;;;;12.02;4.90;;;14.80;99.90;;;;;;4995007;28;20084;-84
2023/10/05 11:34:43;;;;;;;16.88;4.45;;;14.80;99.90;;;;;;4995092;28;20065;-84
2023/10/05 11:37:16;;;;;;;19.10;4.60;;;14.90;99.90;;;;;;4994730;28;20041;-85
2023/10/05 11:39:48;;;;;;;13.52;4.18;;;14.90;99.90;;;;;;4995245;28;20040;-85
2023/10/05 11:42:16;;;;;;;18.20;4.78;;;15.00;99.90;;;;;;4994717;28;20030;-85
2023/10/05 11:44:44;;;;;;;13.82;4.05;;;15.10;99.90;;;;;;5012569;28;20038;-84
2023/10/05 11:47:23;;;;;;;17.35;4.50;;;15.10;99.90;;;;;;4995416;28;20038;-84
2023/10/05 11:49:49;;;;;;;16.73;4.03;;;15.10;99.90;;;;;;5011955;28;20117;-85
2023/10/05 11:52:18;;;;;;;10.50;4.05;;;15.00;99.90;;;;;;5013000;28;20524;-85
2023/10/05 11:54:43;;;;;;;18.50;4.63;;;15.00;99.90;;;;;;5011934;28;20049;-85
2023/10/05 11:57:09;;;;;;;20.35;4.93;;;14.90;99.90;;;;;;4995633;28;20474;-85
2023/10/05 11:59:38;;;;;;;15.85;3.83;;;14.60;99.90;;;;;;5013282;28;20470;-85
2023/10/05 12:02:11;;;;;;;17.95;4.45;;;14.40;99.90;;;;;;5012971;28;20030;-85
2023/10/05 12:04:39;;;;;;;15.55;4.28;;;14.20;99.90;;;;;;4995099;28;20044;-85
2023/10/05 12:07:05;;;;;;;13.35;4.30;;;14.20;99.90;;;;;;5011878;28;20133;-85
2023/10/05 12:09:32;;;;;;;16.30;4.45;;;14.10;99.90;;;;;;5012909;28;20068;-85
2023/10/05 12:12:03;;;;;;;16.70;4.90;;;14.00;99.90;;;;;;5010919;28;20037;-85
2023/10/05 12:14:29;;;;;;;13.05;4.07;;;14.20;99.90;;;;;;5011099;28;20671;-85
2023/10/05 12:16:56;;;;;;;14.98;4.82;;;14.20;99.90;;;;;;4995411;28;20041;-85
2023/10/05 12:19:28;;;;;;;12.27;5.38;;;14.10;99.90;;;;;;4994673;28;20033;-85
2023/10/05 12:21:55;;;;;;;;;;;14.10;99.90;;;;;;4996006;28;20034;-85
2023/10/05 12:24:21;;;;;;;19.05;8.60;;;14.10;99.90;;;;;;4995530;28;20309;-85
2023/10/05 12:26:47;;;;;;;45.80;22.42;;;13.90;99.90;;;;;;5011522;28;20504;-85
2023/10/05 12:29:13;;;;;;;29.67;15.07;;;13.90;99.90;;;;;;5011245;28;20037;-85
2023/10/05 12:31:44;;;;;;;23.60;8.80;;;13.90;99.90;;;;;;4995137;28;20042;-85
2023/10/05 12:34:16;;;;;;;19.30;6.10;;;13.80;99.90;;;;;;4995298;28;20512;-85
2023/10/05 12:36:49;;;;;;;31.92;13.95;;;13.80;99.90;;;;;;5013050;28;20696;-85
2023/10/05 12:39:20;;;;;;;52.70;27.27;;;13.90;99.90;;;;;;5016276;28;20775;-85
2023/10/05 12:41:47;;;;;;;43.75;24.13;;;13.90;99.90;;;;;;5015920;28;20505;-85
2023/10/05 12:44:14;;;;;;;19.67;6.43;;;13.70;99.90;;;;;;4998598;28;20490;-85
2023/10/05 12:46:47;;;;;;;11.38;5.22;;;13.70;99.90;;;;;;5014547;28;20069;-85
2023/10/05 12:49:14;;;;;;;14.65;4.93;;;13.60;99.90;;;;;;5014454;28;20070;-85
2023/10/05 12:51:41;;;;;;;18.45;4.93;;;13.60;99.90;;;;;;4998049;28;20565;-85
2023/10/05 12:54:09;;;;;;;9.73;4.78;;;13.50;99.90;;;;;;4998224;28;20085;-85
2023/10/05 12:56:40;;;;;;;25.67;5.65;;;13.70;99.90;;;;;;5014491;28;20117;-85
2023/10/05 12:59:07;;;;;;;16.60;5.35;;;13.90;99.90;;;;;;4998165;28;20034;-85
2023/10/05 13:01:43;;;;;;;15.00;5.13;;;13.90;99.90;;;;;;5014267;28;20077;-85
2023/10/05 13:04:09;;;;;;;13.15;4.35;;;14.00;99.90;;;;;;4997336;28;20473;-85
2023/10/05 13:06:38;;;;;;;15.73;5.70;;;14.10;99.90;;;;;;4997814;28;20022;-85
2023/10/05 13:09:11;;;;;;;20.30;5.55;;;14.10;99.90;;;;;;4998099;28;20116;-85
2023/10/05 13:11:39;;;;;;;17.13;5.60;;;14.20;99.90;;;;;;4997602;28;20080;-85
2023/10/05 13:14:14;;;;;;;17.20;5.43;;;14.30;99.90;;;;;;4997823;28;20116;-85
2023/10/05 13:16:40;;;;;;;14.10;5.15;;;14.30;99.90;;;;;;5015323;28;20033;-85
2023/10/05 13:19:13;;;;;;;14.48;5.47;;;14.40;99.90;;;;;;5013866;28;20085;-84
2023/10/05 13:21:42;;;;;;;18.65;5.63;;;14.40;99.90;;;;;;4997480;28;20042;-85
2023/10/05 13:24:11;;;;;;;17.42;5.10;;;14.30;99.90;;;;;;5013991;28;20037;-85
2023/10/05 13:26:44;;;;;;;12.30;4.53;;;14.40;99.90;;;;;;5014951;28;20044;-85